createdAt,value
2022-07-25T00:02:16.311Z,74.40
2022-07-25T00:05:39.276Z,74.70
2022-07-25T00:09:01.855Z,74.60
2022-07-25T00:12:24.659Z,74.60
2022-07-25T00:15:46.951Z,74.60
2022-07-25T00:19:09.274Z,74.70
2022-07-25T00:22:31.868Z,75.00
2022-07-25T00:25:54.158Z,74.70
2022-07-25T00:29:16.387Z,74.50
2022-07-25T00:32:38.835Z,74.50
2022-07-25T00:36:01.139Z,74.70
2022-07-25T00:39:23.575Z,74.70
2022-07-25T00:42:45.833Z,75.20
2022-07-25T00:46:08.109Z,75.30
2022-07-25T00:49:31.165Z,75.00
2022-07-25T00:52:53.450Z,75.20
2022-07-25T00:56:16.903Z,75.40
2022-07-25T00:59:39.177Z,75.70
2022-07-25T01:03:01.531Z,75.70
2022-07-25T01:06:24.788Z,76.00
2022-07-25T01:09:47.442Z,76.00
2022-07-25T01:13:09.750Z,76.10
2022-07-25T01:16:32.096Z,76.10
2022-07-25T01:19:54.344Z,76.00
2022-07-25T01:23:16.732Z,76.00
2022-07-25T01:26:39.259Z,76.00
2022-07-25T01:30:01.481Z,76.50
2022-07-25T01:33:23.812Z,76.70
2022-07-25T01:36:46.026Z,76.70
2022-07-25T01:40:08.920Z,76.70
2022-07-25T01:43:31.235Z,77.00
2022-07-25T01:46:53.490Z,77.30
2022-07-25T01:50:15.739Z,77.40
2022-07-25T01:53:37.977Z,77.50
2022-07-25T01:57:00.539Z,77.50
2022-07-25T02:00:23.333Z,77.60
2022-07-25T02:03:45.539Z,77.90
2022-07-25T02:07:07.786Z,78.10
2022-07-25T02:10:29.981Z,78.20
2022-07-25T02:13:52.494Z,78.30
2022-07-25T02:17:14.915Z,78.50
2022-07-25T02:20:37.214Z,78.30
2022-07-25T02:23:59.459Z,78.50
2022-07-25T02:27:21.665Z,79.00
2022-07-25T02:30:44.043Z,79.30
2022-07-25T02:34:06.516Z,79.80
2022-07-25T02:37:29.124Z,79.60
2022-07-25T02:40:53.023Z,80.20
2022-07-25T02:44:15.284Z,80.20
2022-07-25T02:47:37.723Z,80.60
2022-07-25T02:51:00.083Z,80.70
2022-07-25T02:54:22.253Z,81.20
2022-07-25T02:57:44.531Z,81.30
2022-07-25T03:01:06.952Z,81.10
2022-07-25T03:04:31.080Z,81.80
2022-07-25T03:07:53.502Z,81.20
2022-07-25T03:11:16.821Z,81.60
2022-07-25T03:14:39.109Z,81.50
2022-07-25T03:18:01.332Z,81.50
2022-07-25T03:21:23.526Z,81.40
2022-07-25T03:24:45.806Z,81.60
2022-07-25T03:28:08.092Z,81.90
2022-07-25T03:31:30.388Z,82.10
2022-07-25T03:34:52.658Z,81.80
2022-07-25T03:38:15.114Z,82.10
2022-07-25T03:41:37.288Z,82.10
2022-07-25T03:44:59.508Z,82.50
2022-07-25T03:48:21.715Z,82.40
2022-07-25T03:51:43.976Z,83.20
2022-07-25T03:55:08.369Z,83.40
2022-07-25T03:58:30.640Z,83.70
2022-07-25T04:01:52.911Z,83.90
2022-07-25T04:05:15.428Z,83.90
2022-07-25T04:08:37.704Z,84.20
2022-07-25T04:11:59.945Z,84.40
2022-07-25T04:15:22.185Z,84.70
2022-07-25T04:18:44.398Z,84.70
2022-07-25T04:22:07.365Z,84.80
2022-07-25T04:25:29.941Z,84.90
2022-07-25T04:28:52.205Z,85.00
2022-07-25T04:32:14.796Z,85.00
2022-07-25T04:35:37.306Z,85.20
2022-07-25T04:38:59.571Z,85.20
2022-07-25T04:42:21.779Z,85.40
2022-07-25T04:45:44.118Z,85.50
2022-07-25T04:49:06.527Z,85.70
2022-07-25T04:52:28.843Z,85.70
2022-07-25T04:55:51.078Z,86.00
2022-07-25T04:59:13.467Z,85.90
2022-07-25T05:02:36.406Z,86.10
2022-07-25T05:05:58.690Z,86.10
2022-07-25T05:09:20.975Z,86.30
2022-07-25T05:12:43.191Z,86.50
2022-07-25T05:16:05.984Z,86.90
2022-07-25T05:19:28.369Z,86.90
2022-07-25T05:22:50.757Z,87.00
2022-07-25T05:26:13.019Z,87.10
2022-07-25T05:29:35.210Z,87.00
2022-07-25T05:32:57.443Z,87.00
2022-07-25T05:36:19.968Z,87.00
2022-07-25T05:39:42.278Z,87.00
2022-07-25T05:43:04.658Z,87.10
2022-07-25T05:46:26.896Z,87.20
2022-07-25T05:49:49.116Z,87.10
2022-07-25T05:53:11.362Z,87.00
2022-07-25T05:56:33.630Z,87.00
2022-07-25T05:59:55.835Z,86.90
2022-07-25T06:03:19.186Z,86.70
2022-07-25T06:06:41.495Z,86.70
2022-07-25T06:10:04.715Z,86.50
2022-07-25T06:13:27.530Z,86.20
2022-07-25T06:16:50.500Z,86.20
2022-07-25T06:20:12.984Z,86.10
2022-07-25T06:23:35.363Z,85.80
2022-07-25T06:26:57.623Z,85.60
2022-07-25T06:30:20.723Z,85.50
2022-07-25T06:33:43.246Z,85.10
2022-07-25T06:37:05.582Z,85.00
2022-07-25T06:40:28.212Z,84.70
2022-07-25T06:43:50.497Z,84.70
2022-07-25T06:47:12.933Z,84.70
2022-07-25T06:50:35.317Z,84.50
2022-07-25T06:53:57.800Z,84.30
2022-07-25T06:57:20.000Z,84.20
2022-07-25T07:00:42.258Z,84.60
2022-07-25T07:04:05.528Z,84.20
2022-07-25T07:07:27.985Z,84.50
2022-07-25T07:10:50.249Z,83.70
2022-07-25T07:14:12.539Z,82.80
2022-07-25T07:17:34.754Z,82.70
2022-07-25T07:20:57.105Z,82.50
2022-07-25T07:24:24.156Z,82.90
2022-07-25T07:27:48.063Z,82.10
2022-07-25T07:31:18.027Z,81.60
2022-07-25T07:34:40.833Z,81.50
2022-07-25T07:38:03.054Z,81.40
2022-07-25T07:41:26.143Z,81.40
2022-07-25T07:44:49.838Z,80.30
2022-07-25T07:48:12.107Z,80.50
2022-07-25T07:51:34.563Z,80.70
2022-07-25T07:55:15.470Z,80.00
2022-07-25T07:58:37.702Z,79.60
2022-07-25T08:02:00.139Z,78.80
2022-07-25T08:05:27.933Z,78.30
2022-07-25T08:08:50.174Z,78.20
2022-07-25T08:12:12.371Z,77.80
2022-07-25T08:15:34.686Z,77.10
2022-07-25T08:18:56.893Z,77.90
2022-07-25T08:22:19.089Z,77.60
2022-07-25T08:25:42.138Z,78.40
2022-07-25T08:29:18.760Z,78.70
2022-07-25T08:32:22.093Z,79.00
2022-07-25T08:35:25.378Z,78.50
2022-07-25T08:38:28.331Z,78.70
2022-07-25T08:41:30.525Z,78.60
2022-07-25T08:44:35.505Z,78.50
2022-07-25T08:47:37.770Z,78.30
2022-07-25T08:50:40.559Z,77.90
2022-07-25T08:53:43.408Z,77.40
2022-07-25T08:56:51.170Z,76.90
2022-07-25T09:00:13.697Z,76.40
2022-07-25T09:03:36.436Z,76.50
2022-07-25T09:06:58.822Z,76.60
2022-07-25T09:10:26.666Z,76.10
2022-07-25T09:13:30.645Z,75.90
2022-07-25T09:16:51.426Z,76.50
2022-07-25T09:20:18.320Z,75.30
2022-07-25T09:23:40.768Z,74.10
2022-07-25T09:27:12.779Z,74.90
2022-07-25T09:30:35.555Z,75.70
2022-07-25T09:33:59.467Z,75.50
2022-07-25T09:37:26.975Z,76.70
2022-07-25T09:40:56.342Z,76.50
2022-07-25T09:44:19.865Z,76.70
2022-07-25T09:47:52.787Z,76.30
2022-07-25T09:51:15.154Z,76.70
2022-07-25T09:54:39.168Z,76.20
2022-07-25T09:58:01.475Z,76.40
2022-07-25T10:01:33.513Z,76.00
2022-07-25T10:05:16.925Z,76.50
2022-07-25T10:08:40.498Z,76.60
2022-07-25T10:12:08.056Z,77.60
2022-07-25T10:15:49.481Z,78.30
2022-07-25T10:19:11.782Z,78.50
2022-07-25T10:22:56.250Z,78.70
2022-07-25T10:26:19.671Z,78.50
2022-07-25T10:29:42.664Z,77.60
2022-07-25T10:33:11.914Z,76.70
2022-07-25T10:36:44.949Z,75.90
2022-07-25T10:40:08.021Z,75.60
2022-07-25T10:43:37.762Z,75.60
2022-07-25T10:47:11.740Z,75.80
2022-07-25T10:50:54.337Z,74.80
2022-07-25T10:54:17.713Z,75.20
2022-07-25T10:57:54.955Z,74.10
2022-07-25T11:01:29.610Z,75.10
2022-07-25T11:05:03.173Z,73.90
2022-07-25T11:08:33.136Z,72.60
2022-07-25T11:11:58.605Z,71.80
2022-07-25T11:15:24.717Z,71.60
2022-07-25T11:18:47.244Z,70.30
2022-07-25T11:22:10.204Z,69.50
2022-07-25T11:25:32.562Z,68.90
2022-07-25T11:28:54.762Z,68.00
2022-07-25T11:32:17.818Z,67.90
2022-07-25T11:35:40.248Z,67.80
2022-07-25T11:39:03.636Z,68.50
2022-07-25T11:42:27.572Z,68.40
2022-07-25T11:46:04.380Z,68.50
2022-07-25T11:49:26.952Z,67.70
2022-07-25T11:52:59.773Z,67.30
2022-07-25T11:56:41.798Z,67.30
2022-07-25T12:00:24.456Z,67.40
2022-07-25T12:03:47.142Z,67.50
2022-07-25T12:07:09.501Z,67.50
2022-07-25T12:10:34.555Z,67.80
2022-07-25T12:14:04.565Z,68.00
2022-07-25T12:17:26.846Z,67.90
2022-07-25T12:20:49.052Z,67.70
2022-07-25T12:24:11.328Z,67.70
2022-07-25T12:27:33.571Z,67.00
2022-07-25T12:30:56.909Z,66.30
2022-07-25T12:34:19.226Z,66.50
2022-07-25T12:37:42.232Z,66.80
2022-07-25T12:41:05.233Z,67.20
2022-07-25T12:44:27.458Z,67.40
2022-07-25T12:47:49.719Z,67.50
2022-07-25T12:51:11.898Z,67.80
2022-07-25T12:54:34.894Z,68.40
2022-07-25T12:57:57.211Z,68.20
2022-07-25T13:01:19.523Z,69.20
2022-07-25T13:04:41.958Z,68.90
2022-07-25T13:08:07.372Z,68.80
2022-07-25T13:11:30.102Z,68.90
2022-07-25T13:14:52.433Z,69.00
2022-07-25T13:18:14.682Z,69.40
2022-07-25T13:21:16.845Z,69.80
2022-07-25T13:24:18.901Z,69.70
2022-07-25T13:27:22.312Z,69.40
2022-07-25T13:30:24.273Z,70.10
2022-07-25T13:33:27.608Z,69.70
2022-07-25T13:36:29.807Z,67.60
2022-07-25T13:39:31.971Z,67.50
2022-07-25T13:42:34.077Z,67.70
2022-07-25T13:45:36.424Z,68.80
2022-07-25T13:48:38.750Z,70.10
2022-07-25T13:51:40.935Z,69.70
2022-07-25T13:54:43.031Z,70.50
2022-07-25T13:57:45.334Z,70.00
2022-07-25T14:00:47.430Z,69.30
2022-07-25T14:03:49.617Z,69.60
2022-07-25T14:06:52.336Z,69.10
2022-07-25T14:09:54.571Z,68.90
2022-07-25T14:12:56.692Z,69.40
2022-07-25T14:15:59.477Z,69.40
2022-07-25T14:19:02.253Z,68.20
2022-07-25T14:22:05.163Z,68.90
2022-07-25T14:25:07.644Z,67.80
2022-07-25T14:28:09.735Z,67.10
2022-07-25T14:31:12.265Z,67.20
2022-07-25T14:34:17.126Z,68.20
2022-07-25T14:37:20.646Z,68.90
2022-07-25T14:40:22.800Z,68.60
2022-07-25T14:43:24.923Z,67.40
2022-07-25T14:46:27.117Z,68.20
2022-07-25T14:49:29.453Z,67.80
2022-07-25T14:52:31.883Z,67.40
2022-07-25T14:55:33.935Z,67.10
2022-07-25T14:58:36.261Z,66.90
2022-07-25T15:01:39.784Z,66.70
2022-07-25T15:04:41.808Z,67.20
2022-07-25T15:07:44.875Z,67.30
2022-07-25T15:10:47.122Z,67.50
2022-07-25T15:13:49.990Z,67.60
2022-07-25T15:16:52.189Z,67.70
2022-07-25T15:19:54.423Z,68.00
2022-07-25T15:22:56.603Z,68.20
2022-07-25T15:26:03.763Z,68.60
2022-07-25T15:29:08.272Z,68.20
2022-07-25T15:32:10.907Z,68.50
2022-07-25T15:35:13.188Z,68.60
2022-07-25T15:38:16.132Z,68.50
2022-07-25T15:41:18.098Z,68.60
2022-07-25T15:44:20.203Z,68.60
2022-07-25T15:47:22.381Z,68.70
2022-07-25T15:50:24.611Z,68.70
2022-07-25T15:53:29.166Z,68.50
2022-07-25T15:56:31.376Z,68.80
2022-07-25T15:59:33.513Z,69.00
2022-07-25T16:02:36.246Z,69.20
2022-07-25T16:05:39.634Z,69.00
2022-07-25T16:08:41.542Z,69.10
2022-07-25T16:11:43.768Z,69.40
2022-07-25T16:14:45.865Z,77.20
2022-07-25T16:17:49.586Z,78.70
2022-07-25T16:20:51.828Z,80.20
2022-07-25T16:23:53.765Z,77.50
2022-07-25T16:26:55.886Z,80.20
2022-07-25T16:29:57.983Z,79.00
2022-07-25T16:33:00.326Z,80.80
2022-07-25T16:36:03.662Z,80.00
2022-07-25T16:39:05.893Z,78.90
2022-07-25T16:42:08.183Z,79.40
2022-07-25T16:45:10.933Z,81.80
2022-07-25T16:48:13.052Z,82.50
2022-07-25T16:51:15.012Z,83.30
2022-07-25T16:54:17.310Z,82.70
2022-07-25T16:57:20.055Z,80.30
2022-07-25T17:00:27.220Z,79.50
2022-07-25T17:03:29.227Z,79.70
2022-07-25T17:06:31.803Z,79.60
2022-07-25T17:09:33.806Z,80.80
2022-07-25T17:12:35.766Z,79.00
2022-07-25T17:15:38.390Z,79.60
2022-07-25T17:18:40.526Z,79.90
2022-07-25T17:21:42.610Z,79.40
2022-07-25T17:24:44.735Z,77.10
2022-07-25T17:27:47.006Z,80.70
2022-07-25T17:30:49.431Z,78.00
2022-07-25T17:33:51.550Z,80.50
2022-07-25T17:36:54.330Z,80.30
2022-07-25T17:39:58.366Z,77.00
2022-07-25T17:43:00.576Z,77.50
2022-07-25T17:46:02.851Z,77.00
2022-07-25T17:49:05.158Z,77.00
2022-07-25T17:52:07.422Z,80.00
2022-07-25T17:55:09.992Z,79.10
2022-07-25T17:58:12.338Z,81.60
2022-07-25T18:01:14.592Z,79.80
2022-07-25T18:04:16.655Z,80.50
2022-07-25T18:07:19.497Z,82.90
2022-07-25T18:10:22.744Z,81.50
2022-07-25T18:13:24.810Z,81.60
2022-07-25T18:16:27.047Z,82.70
2022-07-25T18:19:29.209Z,79.70
2022-07-25T18:22:31.298Z,79.60
2022-07-25T18:25:34.022Z,79.10
2022-07-25T18:28:36.254Z,80.70
2022-07-25T18:31:38.446Z,79.50
2022-07-25T18:34:40.611Z,79.80
2022-07-25T18:37:42.718Z,78.80
2022-07-25T18:40:44.885Z,79.60
2022-07-25T18:43:48.155Z,80.50
2022-07-25T18:46:50.785Z,80.80
2022-07-25T18:49:53.749Z,81.50
2022-07-25T18:52:56.539Z,81.00
2022-07-25T18:55:58.781Z,80.90
2022-07-25T18:59:00.675Z,81.80
2022-07-25T19:02:05.511Z,81.20
2022-07-25T19:05:08.611Z,81.40
2022-07-25T19:08:10.918Z,82.10
2022-07-25T19:11:12.976Z,82.40
2022-07-25T19:14:15.299Z,81.20
2022-07-25T19:17:17.467Z,80.90
2022-07-25T19:20:19.643Z,82.20
2022-07-25T19:23:21.682Z,80.90
2022-07-25T19:26:24.094Z,81.00
2022-07-25T19:29:26.809Z,81.10
2022-07-25T19:32:28.811Z,80.60
2022-07-25T19:35:30.830Z,80.70
2022-07-25T19:38:33.208Z,80.10
2022-07-25T19:41:35.418Z,79.80
2022-07-25T19:44:55.919Z,79.40
2022-07-25T19:48:18.197Z,79.10
2022-07-25T19:51:40.551Z,78.70
2022-07-25T19:55:02.769Z,79.10
2022-07-25T19:58:25.235Z,78.40
2022-07-25T20:01:49.266Z,78.40
2022-07-25T20:05:11.587Z,78.60
2022-07-25T20:08:33.800Z,78.00
2022-07-25T20:11:56.711Z,77.50
2022-07-25T20:15:19.084Z,77.10
2022-07-25T20:18:41.320Z,76.90
2022-07-25T20:22:04.737Z,76.70
2022-07-25T20:25:27.326Z,76.50
2022-07-25T20:28:49.534Z,76.30
2022-07-25T20:32:11.840Z,75.80
2022-07-25T20:35:34.431Z,75.80
2022-07-25T20:38:57.016Z,75.80
2022-07-25T20:42:19.463Z,75.00
2022-07-25T20:45:42.307Z,75.00
2022-07-25T20:49:11.039Z,74.90
2022-07-25T20:52:37.334Z,74.80
2022-07-25T20:55:59.654Z,74.40
2022-07-25T20:59:21.857Z,74.20
2022-07-25T21:02:44.168Z,74.30
2022-07-25T21:06:06.637Z,74.20
2022-07-25T21:09:32.607Z,74.20
2022-07-25T21:12:56.655Z,73.50
2022-07-25T21:16:19.816Z,73.80
2022-07-25T21:19:42.115Z,73.80
2022-07-25T21:23:05.170Z,73.60
2022-07-25T21:26:27.450Z,73.50
2022-07-25T21:29:49.743Z,73.70
2022-07-25T21:33:14.723Z,73.90
2022-07-25T21:36:37.334Z,73.40
2022-07-25T21:39:59.809Z,73.50
2022-07-25T21:43:22.134Z,73.60
2022-07-25T21:46:44.355Z,73.50
2022-07-25T21:50:25.949Z,73.70
2022-07-25T21:53:48.531Z,74.00
2022-07-25T21:57:13.802Z,74.40
2022-07-25T22:00:41.730Z,74.70
2022-07-25T22:04:07.946Z,74.70
2022-07-25T22:07:30.277Z,75.00
2022-07-25T22:10:52.824Z,75.20
2022-07-25T22:14:15.709Z,75.30
2022-07-25T22:17:48.554Z,75.40
2022-07-25T22:21:13.882Z,75.50
2022-07-25T22:24:41.845Z,75.50
2022-07-25T22:28:06.741Z,75.60
2022-07-25T22:31:35.607Z,75.70
2022-07-25T22:34:57.864Z,75.70
2022-07-25T22:38:20.624Z,75.90
2022-07-25T22:41:43.727Z,75.90
2022-07-25T22:45:06.506Z,75.80
2022-07-25T22:48:28.809Z,75.70
2022-07-25T22:51:51.396Z,75.80
2022-07-25T22:55:13.686Z,75.80
2022-07-25T22:58:36.018Z,76.00
2022-07-25T23:01:58.280Z,76.00
2022-07-25T23:05:20.491Z,76.30
2022-07-25T23:08:42.747Z,76.50
2022-07-25T23:12:05.510Z,76.70
2022-07-25T23:15:28.636Z,76.90
2022-07-25T23:19:10.360Z,76.90
2022-07-25T23:22:32.951Z,77.10
2022-07-25T23:25:55.155Z,77.40
2022-07-25T23:29:17.350Z,77.40
2022-07-25T23:32:39.715Z,77.70
2022-07-25T23:36:02.305Z,78.00
2022-07-25T23:39:24.613Z,78.00
2022-07-25T23:42:46.814Z,78.40
2022-07-25T23:46:09.713Z,78.70
2022-07-25T23:49:34.137Z,78.80
2022-07-25T23:52:56.421Z,79.00
2022-07-25T23:56:21.101Z,78.90
2022-07-25T23:59:43.517Z,78.70
